createdAt,value
2016-07-10T00:00:26.217Z,1009.1
2016-07-10T00:00:56.231Z,1009.1
2016-07-10T00:01:26.253Z,1009.13
2016-07-10T00:01:56.265Z,1009.11
2016-07-10T00:02:26.274Z,1009.09
2016-07-10T00:02:56.290Z,1009.07
2016-07-10T00:03:25.694Z,1009.06
2016-07-10T00:03:56.323Z,1009.05
2016-07-10T00:04:26.343Z,1009.06
2016-07-10T00:04:56.359Z,1009.04
2016-07-10T00:05:26.376Z,1009.06
2016-07-10T00:05:56.386Z,1008.99
2016-07-10T00:06:26.402Z,1008.97
2016-07-10T00:06:56.425Z,1008.99
2016-07-10T00:07:26.431Z,1008.97
2016-07-10T00:07:56.445Z,1008.99
2016-07-10T00:08:26.460Z,1009
2016-07-10T00:08:56.478Z,1009
2016-07-10T00:09:26.494Z,1008.99
2016-07-10T00:09:56.515Z,1008.97
2016-07-10T00:10:26.523Z,1008.98
2016-07-10T00:10:55.928Z,1008.96
2016-07-10T00:11:26.557Z,1008.96
2016-07-10T00:11:55.966Z,1008.96
2016-07-10T00:12:26.581Z,1008.94
2016-07-10T00:12:55.982Z,1008.94
2016-07-10T00:13:26.012Z,1008.92
2016-07-10T00:13:56.628Z,1008.91
2016-07-10T00:14:26.647Z,1008.94
2016-07-10T00:14:56.047Z,1008.94
2016-07-10T00:15:26.679Z,1008.9
2016-07-10T00:15:56.691Z,1008.94
2016-07-10T00:16:26.712Z,1008.91
2016-07-10T00:16:56.741Z,1008.89
2016-07-10T00:17:26.122Z,1008.89
2016-07-10T00:17:56.760Z,1008.91
2016-07-10T00:18:26.780Z,1008.94
2016-07-10T00:18:56.806Z,1008.92
2016-07-10T00:19:26.808Z,1008.9
2016-07-10T00:19:56.825Z,1008.89
2016-07-10T00:20:26.831Z,1008.88
2016-07-10T00:20:56.842Z,1008.86
2016-07-10T00:21:26.863Z,1008.84
2016-07-10T00:21:56.875Z,1008.82
2016-07-10T00:22:26.276Z,1008.89
2016-07-10T00:22:56.914Z,1008.83
2016-07-10T00:23:25.698Z,1008.81
2016-07-10T00:23:56.934Z,1008.82
2016-07-10T00:24:26.953Z,1008.81
2016-07-10T00:24:56.368Z,1008.8
2016-07-10T00:25:26.983Z,1008.82
2016-07-10T00:25:57.005Z,1008.8
2016-07-10T00:26:27.015Z,1008.8
2016-07-10T00:26:57.033Z,1008.84
2016-07-10T00:27:27.059Z,1008.8
2016-07-10T00:27:57.064Z,1008.81
2016-07-10T00:28:27.095Z,1008.77
2016-07-10T00:28:57.092Z,1008.84
2016-07-10T00:29:27.112Z,1008.86
2016-07-10T00:29:57.119Z,1008.84
2016-07-10T00:30:27.140Z,1008.85
2016-07-10T00:30:57.154Z,1008.88
2016-07-10T00:31:27.172Z,1008.87
2016-07-10T00:31:57.194Z,1008.89
2016-07-10T00:32:27.203Z,1008.87
2016-07-10T00:32:57.222Z,1008.88
2016-07-10T00:33:26.625Z,1008.91
2016-07-10T00:33:57.244Z,1008.89
2016-07-10T00:34:27.269Z,1008.89
2016-07-10T00:34:57.303Z,1008.88
2016-07-10T00:35:26.687Z,1008.91
2016-07-10T00:35:57.303Z,1008.9
2016-07-10T00:36:27.319Z,1008.88
2016-07-10T00:36:57.333Z,1008.91
2016-07-10T00:37:26.120Z,1008.9
2016-07-10T00:37:57.364Z,1008.87
2016-07-10T00:38:26.772Z,1008.88
2016-07-10T00:38:57.394Z,1008.9
2016-07-10T00:39:27.439Z,1008.88
2016-07-10T00:39:56.825Z,1008.88
2016-07-10T00:40:27.450Z,1008.87
2016-07-10T00:40:57.454Z,1008.87
2016-07-10T00:41:27.480Z,1008.87
2016-07-10T00:41:57.489Z,1008.88
2016-07-10T00:42:27.515Z,1008.89
2016-07-10T00:42:57.532Z,1008.87
2016-07-10T00:43:27.541Z,1008.88
2016-07-10T00:43:57.561Z,1008.86
2016-07-10T00:44:27.561Z,1008.88
2016-07-10T00:44:57.600Z,1008.87
2016-07-10T00:45:26.980Z,1008.86
2016-07-10T00:45:57.612Z,1008.85
2016-07-10T00:46:27.622Z,1008.88
2016-07-10T00:46:57.035Z,1008.91
2016-07-10T00:47:27.653Z,1008.89
2016-07-10T00:47:57.678Z,1008.89
2016-07-10T00:48:27.689Z,1008.89
2016-07-10T00:48:57.706Z,1008.9
2016-07-10T00:49:27.719Z,1008.88
2016-07-10T00:49:57.729Z,1008.86
2016-07-10T00:50:27.747Z,1008.92
2016-07-10T00:50:57.760Z,1008.9
2016-07-10T00:51:27.172Z,1008.91
2016-07-10T00:51:57.177Z,1008.93
2016-07-10T00:52:27.810Z,1008.88
2016-07-10T00:52:57.826Z,1008.91
2016-07-10T00:53:27.858Z,1008.91
2016-07-10T00:53:57.863Z,1008.93
2016-07-10T00:54:27.867Z,1008.95
2016-07-10T00:54:57.885Z,1008.92
2016-07-10T00:55:26.665Z,1008.9
2016-07-10T00:55:57.920Z,1008.91
2016-07-10T00:56:27.321Z,1008.91
2016-07-10T00:56:57.949Z,1008.93
2016-07-10T00:57:27.966Z,1008.91
2016-07-10T00:57:57.984Z,1008.93
2016-07-10T00:58:27.994Z,1008.95
2016-07-10T00:58:57.410Z,1008.91
2016-07-10T00:59:28.025Z,1008.93
2016-07-10T00:59:57.425Z,1008.9
2016-07-10T01:00:28.059Z,1008.91
2016-07-10T01:00:58.068Z,1008.94
2016-07-10T01:01:28.086Z,1008.95
2016-07-10T01:01:57.485Z,1008.94
2016-07-10T01:02:28.120Z,1008.94
2016-07-10T01:02:58.124Z,1008.94
2016-07-10T01:03:27.546Z,1008.94
2016-07-10T01:03:57.549Z,1008.97
2016-07-10T01:04:28.173Z,1008.95
2016-07-10T01:04:57.583Z,1008.96
2016-07-10T01:05:28.210Z,1008.99
2016-07-10T01:05:58.223Z,1008.97
2016-07-10T01:06:28.245Z,1009
2016-07-10T01:06:58.266Z,1008.98
2016-07-10T01:07:28.270Z,1008.99
2016-07-10T01:07:57.664Z,1009
2016-07-10T01:08:28.302Z,1008.99
2016-07-10T01:08:58.317Z,1009.01
2016-07-10T01:09:28.327Z,1008.98
2016-07-10T01:09:58.339Z,1009
2016-07-10T01:10:28.368Z,1008.99
2016-07-10T01:10:58.374Z,1009
2016-07-10T01:11:27.775Z,1008.99
2016-07-10T01:11:58.401Z,1008.97
2016-07-10T01:12:28.429Z,1008.99
2016-07-10T01:12:57.822Z,1008.98
2016-07-10T01:13:28.456Z,1009
2016-07-10T01:13:57.850Z,1008.98
2016-07-10T01:14:27.873Z,1008.99
2016-07-10T01:14:58.507Z,1008.99
2016-07-10T01:15:27.905Z,1008.99
2016-07-10T01:15:58.537Z,1009.01
2016-07-10T01:16:28.544Z,1009
2016-07-10T01:16:58.565Z,1009.01
2016-07-10T01:17:27.349Z,1009
2016-07-10T01:17:58.597Z,1008.99
2016-07-10T01:18:27.992Z,1008.98
2016-07-10T01:18:58.619Z,1008.98
2016-07-10T01:19:28.652Z,1009
2016-07-10T01:19:58.662Z,1009.02
2016-07-10T01:20:28.665Z,1009.05
2016-07-10T01:20:58.679Z,1009.02
2016-07-10T01:21:27.467Z,1009.04
2016-07-10T01:21:58.709Z,1009.03
2016-07-10T01:22:28.734Z,1009.02
2016-07-10T01:22:58.134Z,1009.03
2016-07-10T01:23:28.762Z,1009.01
2016-07-10T01:23:58.770Z,1008.99
2016-07-10T01:24:28.792Z,1008.98
2016-07-10T01:24:58.195Z,1009.01
2016-07-10T01:25:28.827Z,1008.94
2016-07-10T01:25:58.223Z,1008.95
2016-07-10T01:26:28.854Z,1008.94
2016-07-10T01:26:58.863Z,1008.89
2016-07-10T01:27:28.267Z,1008.92
2016-07-10T01:27:58.898Z,1008.85
2016-07-10T01:28:28.909Z,1008.87
2016-07-10T01:28:58.931Z,1008.89
2016-07-10T01:29:28.339Z,1008.84
2016-07-10T01:29:58.957Z,1008.85
2016-07-10T01:30:28.981Z,1008.85
2016-07-10T01:30:58.990Z,1008.81
2016-07-10T01:31:29.004Z,1008.85
2016-07-10T01:31:59.028Z,1008.85
2016-07-10T01:32:29.031Z,1008.86
2016-07-10T01:32:59.045Z,1008.85
2016-07-10T01:33:29.065Z,1008.84
2016-07-10T01:33:59.091Z,1008.86
2016-07-10T01:34:29.101Z,1008.87
2016-07-10T01:34:59.107Z,1008.84
2016-07-10T01:35:29.120Z,1008.84
2016-07-10T01:35:59.137Z,1008.87
2016-07-10T01:36:29.153Z,1008.85
2016-07-10T01:36:59.167Z,1008.84
2016-07-10T01:37:28.568Z,1008.82
2016-07-10T01:37:58.587Z,1008.83
2016-07-10T01:38:29.223Z,1008.87
2016-07-10T01:38:59.230Z,1008.85
2016-07-10T01:39:28.629Z,1008.86
2016-07-10T01:39:59.259Z,1008.83
2016-07-10T01:40:29.275Z,1008.83
2016-07-10T01:40:59.288Z,1008.81
2016-07-10T01:41:29.307Z,1008.83
2016-07-10T01:41:59.320Z,1008.78
2016-07-10T01:42:29.340Z,1008.8
2016-07-10T01:42:58.735Z,1008.8
2016-07-10T01:43:29.370Z,1008.82
2016-07-10T01:43:58.763Z,1008.8
2016-07-10T01:44:28.783Z,1008.79
2016-07-10T01:44:59.438Z,1008.79
2016-07-10T01:45:29.433Z,1008.78
2016-07-10T01:45:59.440Z,1008.77
2016-07-10T01:46:28.840Z,1008.79
2016-07-10T01:46:59.472Z,1008.76
2016-07-10T01:47:29.493Z,1008.76
2016-07-10T01:47:58.897Z,1008.74
2016-07-10T01:48:29.520Z,1008.74
2016-07-10T01:48:59.528Z,1008.75
2016-07-10T01:49:28.928Z,1008.76
2016-07-10T01:49:59.577Z,1008.75
2016-07-10T01:50:29.584Z,1008.73
2016-07-10T01:50:59.597Z,1008.75
2016-07-10T01:51:28.999Z,1008.75
2016-07-10T01:51:59.010Z,1008.72
2016-07-10T01:52:29.649Z,1008.71
2016-07-10T01:52:59.651Z,1008.73
2016-07-10T01:53:29.678Z,1008.72
2016-07-10T01:53:59.699Z,1008.69
2016-07-10T01:54:29.705Z,1008.69
2016-07-10T01:54:59.723Z,1008.7
2016-07-10T01:55:29.727Z,1008.66
2016-07-10T01:55:59.744Z,1008.7
2016-07-10T01:56:29.768Z,1008.69
2016-07-10T01:56:59.776Z,1008.67
2016-07-10T01:57:29.803Z,1008.66
2016-07-10T01:57:59.190Z,1008.66
2016-07-10T01:58:29.817Z,1008.66
2016-07-10T01:58:59.846Z,1008.66
2016-07-10T01:59:29.858Z,1008.63
2016-07-10T01:59:59.871Z,1008.63
2016-07-10T02:00:29.876Z,1008.65
2016-07-10T02:00:59.286Z,1008.64
2016-07-10T02:01:29.919Z,1008.65
2016-07-10T02:01:59.925Z,1008.61
2016-07-10T02:02:29.948Z,1008.6
2016-07-10T02:02:59.967Z,1008.59
2016-07-10T02:03:29.357Z,1008.59
2016-07-10T02:03:59.996Z,1008.61
2016-07-10T02:04:30.019Z,1008.57
2016-07-10T02:05:00.020Z,1008.57
2016-07-10T02:05:30.039Z,1008.53
2016-07-10T02:06:00.056Z,1008.54
2016-07-10T02:06:30.068Z,1008.55
2016-07-10T02:06:59.468Z,1008.55
2016-07-10T02:07:30.098Z,1008.56
2016-07-10T02:08:00.118Z,1008.55
2016-07-10T02:08:30.129Z,1008.56
2016-07-10T02:09:00.139Z,1008.56
2016-07-10T02:09:30.160Z,1008.54
2016-07-10T02:10:00.174Z,1008.54
2016-07-10T02:10:30.182Z,1008.53
2016-07-10T02:10:59.589Z,1008.52
2016-07-10T02:11:28.979Z,1008.58
2016-07-10T02:12:00.249Z,1008.54
2016-07-10T02:12:30.250Z,1008.52
2016-07-10T02:13:00.266Z,1008.55
2016-07-10T02:13:30.274Z,1008.53
2016-07-10T02:14:00.301Z,1008.55
2016-07-10T02:14:30.318Z,1008.57
2016-07-10T02:15:00.325Z,1008.58
2016-07-10T02:15:30.342Z,1008.55
2016-07-10T02:16:00.358Z,1008.54
2016-07-10T02:16:30.369Z,1008.54
2016-07-10T02:17:00.394Z,1008.53
2016-07-10T02:17:30.400Z,1008.54
2016-07-10T02:18:00.418Z,1008.55
2016-07-10T02:18:30.454Z,1008.53
2016-07-10T02:19:00.441Z,1008.51
2016-07-10T02:19:29.838Z,1008.51
2016-07-10T02:20:00.484Z,1008.5
2016-07-10T02:20:29.884Z,1008.49
2016-07-10T02:21:00.500Z,1008.5
2016-07-10T02:21:30.519Z,1008.46
2016-07-10T02:22:00.535Z,1008.52
2016-07-10T02:22:30.564Z,1008.5
2016-07-10T02:22:59.953Z,1008.49
2016-07-10T02:23:29.966Z,1008.47
2016-07-10T02:24:00.599Z,1008.46
2016-07-10T02:24:30.617Z,1008.48
2016-07-10T02:25:00.627Z,1008.46
2016-07-10T02:25:30.641Z,1008.46
2016-07-10T02:26:00.648Z,1008.46
2016-07-10T02:26:30.685Z,1008.5
2016-07-10T02:27:00.079Z,1008.49
2016-07-10T02:27:30.095Z,1008.47
2016-07-10T02:28:00.714Z,1008.5
2016-07-10T02:28:30.727Z,1008.45
2016-07-10T02:29:00.763Z,1008.44
2016-07-10T02:29:30.769Z,1008.47
2016-07-10T02:30:00.783Z,1008.42
2016-07-10T02:30:30.791Z,1008.44
2016-07-10T02:31:00.808Z,1008.42
2016-07-10T02:31:30.821Z,1008.4
2016-07-10T02:32:00.837Z,1008.41
2016-07-10T02:32:30.849Z,1008.41
2016-07-10T02:33:00.866Z,1008.42
2016-07-10T02:33:30.881Z,1008.44
2016-07-10T02:34:00.902Z,1008.4
2016-07-10T02:34:30.911Z,1008.4
2016-07-10T02:35:00.924Z,1008.4
2016-07-10T02:35:30.940Z,1008.41
2016-07-10T02:36:00.957Z,1008.42
2016-07-10T02:36:30.971Z,1008.4
2016-07-10T02:37:00.369Z,1008.41
2016-07-10T02:37:31.000Z,1008.39
2016-07-10T02:38:01.024Z,1008.36
2016-07-10T02:38:31.031Z,1008.35
2016-07-10T02:39:01.047Z,1008.37
2016-07-10T02:39:31.059Z,1008.39
2016-07-10T02:40:00.460Z,1008.35
2016-07-10T02:40:30.473Z,1008.31
2016-07-10T02:41:01.109Z,1008.35
2016-07-10T02:41:31.126Z,1008.34
2016-07-10T02:42:01.131Z,1008.33
2016-07-10T02:42:30.538Z,1008.28
2016-07-10T02:43:01.171Z,1008.32
2016-07-10T02:43:31.195Z,1008.33
2016-07-10T02:44:01.194Z,1008.31
2016-07-10T02:44:31.212Z,1008.33
2016-07-10T02:45:01.230Z,1008.27
2016-07-10T02:45:30.625Z,1008.3
2016-07-10T02:46:00.645Z,1008.28
2016-07-10T02:46:31.279Z,1008.27
2016-07-10T02:47:01.283Z,1008.27
2016-07-10T02:47:30.687Z,1008.25
2016-07-10T02:48:01.318Z,1008.27
2016-07-10T02:48:31.331Z,1008.21
2016-07-10T02:49:00.734Z,1008.25
2016-07-10T02:49:31.368Z,1008.22
2016-07-10T02:50:01.378Z,1008.22
2016-07-10T02:50:30.779Z,1008.19
2016-07-10T02:51:01.405Z,1008.22
2016-07-10T02:51:31.421Z,1008.18
2016-07-10T02:52:01.440Z,1008.18
2016-07-10T02:52:31.456Z,1008.17
2016-07-10T02:53:01.472Z,1008.18
2016-07-10T02:53:31.493Z,1008.22
2016-07-10T02:54:00.887Z,1008.18
2016-07-10T02:54:31.517Z,1008.2
2016-07-10T02:55:01.531Z,1008.2
2016-07-10T02:55:31.550Z,1008.18
2016-07-10T02:56:01.565Z,1008.17
2016-07-10T02:56:31.571Z,1008.18
2016-07-10T02:57:01.598Z,1008.14
2016-07-10T02:57:31.619Z,1008.16
2016-07-10T02:58:01.612Z,1008.15
2016-07-10T02:58:31.630Z,1008.15
2016-07-10T02:59:01.645Z,1008.15
2016-07-10T02:59:31.661Z,1008.14
2016-07-10T03:00:01.684Z,1008.16
2016-07-10T03:00:31.696Z,1008.11
2016-07-10T03:01:01.723Z,1008.12
2016-07-10T03:01:31.725Z,1008.14
2016-07-10T03:02:01.748Z,1008.16
2016-07-10T03:02:31.751Z,1008.15
2016-07-10T03:03:01.761Z,1008.14
2016-07-10T03:03:31.784Z,1008.16
2016-07-10T03:04:01.807Z,1008.17
2016-07-10T03:04:31.201Z,1008.13
2016-07-10T03:05:01.826Z,1008.16
2016-07-10T03:05:31.841Z,1008.15
2016-07-10T03:06:01.244Z,1008.15
2016-07-10T03:06:31.875Z,1008.16
2016-07-10T03:07:01.887Z,1008.15
2016-07-10T03:07:31.287Z,1008.13
2016-07-10T03:08:01.935Z,1008.12
2016-07-10T03:08:31.936Z,1008.14
2016-07-10T03:09:01.949Z,1008.11
2016-07-10T03:09:31.356Z,1008.07
2016-07-10T03:10:01.994Z,1008.1
2016-07-10T03:10:30.762Z,1008.12
2016-07-10T03:11:02.008Z,1008.1
2016-07-10T03:11:32.025Z,1008.1
2016-07-10T03:12:01.421Z,1008.1
2016-07-10T03:12:31.452Z,1008.08
2016-07-10T03:13:01.455Z,1008.07
2016-07-10T03:13:32.082Z,1008.04
2016-07-10T03:14:02.107Z,1008.07
2016-07-10T03:14:31.508Z,1008.09
2016-07-10T03:15:01.511Z,1008.07
2016-07-10T03:15:32.136Z,1008.07
2016-07-10T03:16:02.160Z,1008.08
2016-07-10T03:16:31.563Z,1008.1
2016-07-10T03:17:02.189Z,1008.07
2016-07-10T03:17:32.203Z,1008.09
2016-07-10T03:18:02.220Z,1008.06
2016-07-10T03:18:32.232Z,1008.05
2016-07-10T03:19:02.249Z,1008.04
2016-07-10T03:19:32.267Z,1008.07
2016-07-10T03:20:02.275Z,1008.02
2016-07-10T03:20:32.290Z,1008.02
2016-07-10T03:21:02.323Z,1008.03
2016-07-10T03:21:32.324Z,1008.02
2016-07-10T03:22:01.723Z,1007.98
2016-07-10T03:22:31.741Z,1008.01
2016-07-10T03:23:02.379Z,1007.98
2016-07-10T03:23:31.152Z,1007.98
2016-07-10T03:24:02.399Z,1007.98
2016-07-10T03:24:32.418Z,1007.99
2016-07-10T03:25:02.435Z,1007.98
2016-07-10T03:25:32.443Z,1007.96
2016-07-10T03:26:02.460Z,1008
2016-07-10T03:26:32.477Z,1007.98
2016-07-10T03:27:02.489Z,1007.97
2016-07-10T03:27:32.502Z,1007.97
2016-07-10T03:28:02.522Z,1007.96
2016-07-10T03:28:32.550Z,1008.01
2016-07-10T03:29:02.555Z,1007.98
2016-07-10T03:29:31.962Z,1007.95
2016-07-10T03:30:02.577Z,1007.96
2016-07-10T03:30:32.601Z,1007.95
2016-07-10T03:31:02.624Z,1007.91
2016-07-10T03:31:32.626Z,1007.91
2016-07-10T03:32:02.638Z,1007.92
2016-07-10T03:32:32.657Z,1007.88
2016-07-10T03:33:02.665Z,1007.89
2016-07-10T03:33:32.684Z,1007.88
2016-07-10T03:34:02.699Z,1007.9
2016-07-10T03:34:32.105Z,1007.86
2016-07-10T03:35:02.729Z,1007.91
2016-07-10T03:35:32.744Z,1007.9
2016-07-10T03:36:02.145Z,1007.89
2016-07-10T03:36:32.778Z,1007.92
2016-07-10T03:37:02.795Z,1007.87
2016-07-10T03:37:32.808Z,1007.87
2016-07-10T03:38:02.833Z,1007.87
2016-07-10T03:38:32.833Z,1007.9
2016-07-10T03:39:02.853Z,1007.88
2016-07-10T03:39:32.867Z,1007.87
2016-07-10T03:40:02.263Z,1007.88
2016-07-10T03:40:32.894Z,1007.9
2016-07-10T03:41:02.912Z,1007.89
2016-07-10T03:41:32.924Z,1007.87
2016-07-10T03:42:02.949Z,1007.84
2016-07-10T03:42:32.959Z,1007.85
2016-07-10T03:43:02.360Z,1007.8
2016-07-10T03:43:32.980Z,1007.8
2016-07-10T03:44:03.014Z,1007.81
2016-07-10T03:44:33.016Z,1007.8
2016-07-10T03:45:03.027Z,1007.81
2016-07-10T03:45:32.425Z,1007.81
2016-07-10T03:46:02.447Z,1007.83
2016-07-10T03:46:33.082Z,1007.85
2016-07-10T03:47:03.097Z,1007.87
2016-07-10T03:47:33.103Z,1007.87
2016-07-10T03:48:03.113Z,1007.88
2016-07-10T03:48:33.134Z,1007.87
2016-07-10T03:49:03.164Z,1007.91
2016-07-10T03:49:32.552Z,1007.87
2016-07-10T03:50:03.177Z,1007.86
2016-07-10T03:50:32.577Z,1007.89
2016-07-10T03:51:03.220Z,1007.85
2016-07-10T03:51:33.224Z,1007.89
2016-07-10T03:52:02.025Z,1007.86
2016-07-10T03:52:33.254Z,1007.85
2016-07-10T03:53:03.273Z,1007.85
2016-07-10T03:53:33.288Z,1007.84
2016-07-10T03:54:03.298Z,1007.88
2016-07-10T03:54:33.312Z,1007.87
2016-07-10T03:55:02.716Z,1007.87
2016-07-10T03:55:33.348Z,1007.9
2016-07-10T03:56:03.361Z,1007.87
2016-07-10T03:56:33.375Z,1007.88
2016-07-10T03:57:02.769Z,1007.86
2016-07-10T03:57:33.405Z,1007.86
2016-07-10T03:58:03.430Z,1007.89
2016-07-10T03:58:33.433Z,1007.84
2016-07-10T03:59:03.453Z,1007.89
2016-07-10T03:59:33.464Z,1007.91
2016-07-10T04:00:03.487Z,1007.88
2016-07-10T04:00:33.493Z,1007.87
2016-07-10T04:01:03.507Z,1007.88
2016-07-10T04:01:33.526Z,1007.84
2016-07-10T04:02:03.536Z,1007.86
2016-07-10T04:02:32.947Z,1007.83
2016-07-10T04:03:03.563Z,1007.86
2016-07-10T04:03:33.589Z,1007.85
2016-07-10T04:04:02.984Z,1007.85
2016-07-10T04:04:33.616Z,1007.87
2016-07-10T04:05:03.634Z,1007.87
2016-07-10T04:05:33.649Z,1007.84
2016-07-10T04:06:03.669Z,1007.86
2016-07-10T04:06:33.675Z,1007.86
2016-07-10T04:07:03.695Z,1007.82
2016-07-10T04:07:33.711Z,1007.83
2016-07-10T04:08:03.105Z,1007.86
2016-07-10T04:08:33.115Z,1007.83
2016-07-10T04:09:03.750Z,1007.82
2016-07-10T04:09:33.764Z,1007.79
2016-07-10T04:10:03.796Z,1007.83
2016-07-10T04:10:33.181Z,1007.86
2016-07-10T04:11:03.803Z,1007.84
2016-07-10T04:11:32.596Z,1007.81
2016-07-10T04:12:02.626Z,1007.81
2016-07-10T04:12:33.850Z,1007.82
2016-07-10T04:13:03.871Z,1007.83
2016-07-10T04:13:33.888Z,1007.82
2016-07-10T04:14:03.894Z,1007.83
2016-07-10T04:14:33.925Z,1007.8
2016-07-10T04:15:03.931Z,1007.81
2016-07-10T04:15:33.945Z,1007.83
2016-07-10T04:16:03.953Z,1007.82
2016-07-10T04:16:33.358Z,1007.81
2016-07-10T04:17:04.001Z,1007.78
2016-07-10T04:17:34.005Z,1007.82
2016-07-10T04:18:04.021Z,1007.77
2016-07-10T04:18:34.035Z,1007.79
2016-07-10T04:19:04.051Z,1007.76
2016-07-10T04:19:33.456Z,1007.78
2016-07-10T04:20:04.088Z,1007.78
2016-07-10T04:20:34.090Z,1007.8
2016-07-10T04:21:04.114Z,1007.79
2016-07-10T04:21:34.136Z,1007.77
2016-07-10T04:22:04.137Z,1007.77
2016-07-10T04:22:34.156Z,1007.77
2016-07-10T04:23:04.187Z,1007.77
2016-07-10T04:23:34.188Z,1007.78
2016-07-10T04:24:04.202Z,1007.79
2016-07-10T04:24:34.216Z,1007.78
2016-07-10T04:25:03.616Z,1007.84
2016-07-10T04:25:34.236Z,1007.82
2016-07-10T04:26:04.267Z,1007.85
2016-07-10T04:26:33.679Z,1007.86
2016-07-10T04:27:04.288Z,1007.84
2016-07-10T04:27:34.307Z,1007.89
2016-07-10T04:28:04.322Z,1007.88
2016-07-10T04:28:34.339Z,1007.88
2016-07-10T04:29:04.354Z,1007.89
2016-07-10T04:29:34.360Z,1007.87
2016-07-10T04:30:04.390Z,1007.87
2016-07-10T04:30:33.780Z,1007.84
2016-07-10T04:31:03.796Z,1007.87
2016-07-10T04:31:34.430Z,1007.89
2016-07-10T04:32:04.451Z,1007.88
2016-07-10T04:32:33.839Z,1007.88
2016-07-10T04:33:04.476Z,1007.89
2016-07-10T04:33:34.491Z,1007.9
2016-07-10T04:34:04.499Z,1007.86
2016-07-10T04:34:34.520Z,1007.89
2016-07-10T04:35:04.537Z,1007.88
2016-07-10T04:35:34.546Z,1007.87
2016-07-10T04:36:04.569Z,1007.88
2016-07-10T04:36:34.578Z,1007.89
2016-07-10T04:37:04.592Z,1007.83
2016-07-10T04:37:34.614Z,1007.84
2016-07-10T04:38:04.633Z,1007.84
2016-07-10T04:38:34.631Z,1007.87
2016-07-10T04:39:04.647Z,1007.87
2016-07-10T04:39:33.446Z,1007.84
2016-07-10T04:40:04.682Z,1007.85
2016-07-10T04:40:34.700Z,1007.82
2016-07-10T04:41:04.708Z,1007.84
2016-07-10T04:41:34.726Z,1007.78
2016-07-10T04:42:04.880Z,1007.81
2016-07-10T04:42:34.144Z,1007.8
2016-07-10T04:43:04.166Z,1007.8
2016-07-10T04:43:34.796Z,1007.81
2016-07-10T04:44:04.803Z,1007.79
2016-07-10T04:44:34.819Z,1007.8
2016-07-10T04:45:04.838Z,1007.79
2016-07-10T04:45:34.246Z,1007.8
2016-07-10T04:46:04.262Z,1007.76
2016-07-10T04:46:34.893Z,1007.77
2016-07-10T04:47:04.895Z,1007.75
2016-07-10T04:47:34.916Z,1007.79
2016-07-10T04:48:04.936Z,1007.78
2016-07-10T04:48:34.953Z,1007.78
2016-07-10T04:49:04.963Z,1007.77
2016-07-10T04:49:34.972Z,1007.75
2016-07-10T04:50:04.375Z,1007.75
2016-07-10T04:50:35.006Z,1007.75
2016-07-10T04:51:05.025Z,1007.71
2016-07-10T04:51:35.027Z,1007.79
2016-07-10T04:52:05.051Z,1007.76
2016-07-10T04:52:35.061Z,1007.78
2016-07-10T04:53:04.466Z,1007.76
2016-07-10T04:53:35.089Z,1007.77
2016-07-10T04:54:05.105Z,1007.8
2016-07-10T04:54:35.117Z,1007.8
2016-07-10T04:55:04.526Z,1007.79
2016-07-10T04:55:35.165Z,1007.79
2016-07-10T04:56:05.166Z,1007.78
2016-07-10T04:56:34.578Z,1007.81
2016-07-10T04:57:04.589Z,1007.81
2016-07-10T04:57:35.209Z,1007.78
2016-07-10T04:58:05.233Z,1007.82
2016-07-10T04:58:34.632Z,1007.84
2016-07-10T04:59:05.263Z,1007.83
2016-07-10T04:59:35.276Z,1007.8
2016-07-10T05:00:05.298Z,1007.8
2016-07-10T05:00:35.314Z,1007.81
2016-07-10T05:01:04.703Z,1007.8
2016-07-10T05:01:35.353Z,1007.8
2016-07-10T05:02:05.355Z,1007.82
2016-07-10T05:02:35.376Z,1007.8
2016-07-10T05:03:04.775Z,1007.81
2016-07-10T05:03:35.419Z,1007.78
2016-07-10T05:04:05.417Z,1007.8
2016-07-10T05:04:34.838Z,1007.79
2016-07-10T05:05:05.448Z,1007.78
2016-07-10T05:05:35.464Z,1007.8
2016-07-10T05:06:04.865Z,1007.81
2016-07-10T05:06:35.503Z,1007.78
2016-07-10T05:07:05.507Z,1007.8
2016-07-10T05:07:35.530Z,1007.75
2016-07-10T05:08:05.542Z,1007.76
2016-07-10T05:08:35.553Z,1007.77
2016-07-10T05:09:05.569Z,1007.74
2016-07-10T05:09:35.594Z,1007.76
2016-07-10T05:10:05.598Z,1007.78
2016-07-10T05:10:35.622Z,1007.76
2016-07-10T05:11:05.631Z,1007.77
2016-07-10T05:11:35.661Z,1007.78
2016-07-10T05:12:05.051Z,1007.78
2016-07-10T05:12:34.463Z,1007.78
2016-07-10T05:13:05.075Z,1007.79
2016-07-10T05:13:35.712Z,1007.8
2016-07-10T05:14:05.725Z,1007.78
2016-07-10T05:14:35.123Z,1007.79
2016-07-10T05:15:05.759Z,1007.77
2016-07-10T05:15:35.151Z,1007.78
2016-07-10T05:16:05.797Z,1007.74
2016-07-10T05:16:35.187Z,1007.77
2016-07-10T05:17:05.815Z,1007.77
2016-07-10T05:17:35.844Z,1007.81
2016-07-10T05:18:05.847Z,1007.81
2016-07-10T05:18:35.242Z,1007.79
2016-07-10T05:19:05.885Z,1007.74
2016-07-10T05:19:35.903Z,1007.7
2016-07-10T05:20:05.906Z,1007.69
2016-07-10T05:20:35.923Z,1007.7
2016-07-10T05:21:05.941Z,1007.69
2016-07-10T05:21:35.333Z,1007.69
2016-07-10T05:22:05.976Z,1007.7
2016-07-10T05:22:35.371Z,1007.69
2016-07-10T05:23:06.006Z,1007.71
2016-07-10T05:23:35.415Z,1007.69
2016-07-10T05:24:06.050Z,1007.71
2016-07-10T05:24:36.057Z,1007.7
2016-07-10T05:25:06.069Z,1007.69
2016-07-10T05:25:35.468Z,1007.72
2016-07-10T05:26:06.095Z,1007.69
2016-07-10T05:26:35.491Z,1007.7
2016-07-10T05:27:06.125Z,1007.65
2016-07-10T05:27:36.141Z,1007.66
2016-07-10T05:28:05.548Z,1007.64
2016-07-10T05:28:36.173Z,1007.66
2016-07-10T05:29:06.198Z,1007.65
2016-07-10T05:29:35.585Z,1007.64
2016-07-10T05:30:06.226Z,1007.63
2016-07-10T05:30:35.629Z,1007.63
2016-07-10T05:31:06.241Z,1007.65
2016-07-10T05:31:36.282Z,1007.65
2016-07-10T05:32:06.276Z,1007.62
2016-07-10T05:32:36.294Z,1007.65
2016-07-10T05:33:06.317Z,1007.63
2016-07-10T05:33:36.324Z,1007.63
2016-07-10T05:34:06.350Z,1007.65
2016-07-10T05:34:36.357Z,1007.68
2016-07-10T05:35:06.385Z,1007.69
2016-07-10T05:35:36.389Z,1007.68
2016-07-10T05:36:06.412Z,1007.66
2016-07-10T05:36:36.444Z,1007.68
2016-07-10T05:37:06.430Z,1007.65
2016-07-10T05:37:36.448Z,1007.63
2016-07-10T05:38:05.855Z,1007.64
2016-07-10T05:38:35.271Z,1007.62
2016-07-10T05:39:06.500Z,1007.61
2016-07-10T05:39:35.898Z,1007.63
2016-07-10T05:40:06.534Z,1007.66
2016-07-10T05:40:36.545Z,1007.62
2016-07-10T05:41:05.956Z,1007.61
2016-07-10T05:41:36.576Z,1007.62
2016-07-10T05:42:06.590Z,1007.58
2016-07-10T05:42:36.615Z,1007.6
2016-07-10T05:43:06.638Z,1007.6
2016-07-10T05:43:36.647Z,1007.6
2016-07-10T05:44:06.652Z,1007.6
2016-07-10T05:44:36.054Z,1007.57
2016-07-10T05:45:06.690Z,1007.6
2016-07-10T05:45:36.695Z,1007.6
2016-07-10T05:46:06.726Z,1007.55
2016-07-10T05:46:35.509Z,1007.64
2016-07-10T05:47:06.755Z,1007.59
2016-07-10T05:47:36.765Z,1007.6
2016-07-10T05:48:06.179Z,1007.6
2016-07-10T05:48:36.802Z,1007.62
2016-07-10T05:49:06.202Z,1007.62
2016-07-10T05:49:36.837Z,1007.63
2016-07-10T05:50:06.226Z,1007.63
2016-07-10T05:50:36.871Z,1007.64
2016-07-10T05:51:06.880Z,1007.59
2016-07-10T05:51:36.274Z,1007.61
2016-07-10T05:52:06.918Z,1007.64
2016-07-10T05:52:36.922Z,1007.66
2016-07-10T05:53:06.321Z,1007.63
2016-07-10T05:53:36.956Z,1007.64
2016-07-10T05:54:06.981Z,1007.66
2016-07-10T05:54:36.986Z,1007.62
2016-07-10T05:55:07.005Z,1007.64
2016-07-10T05:55:36.408Z,1007.66
2016-07-10T05:56:06.426Z,1007.66
2016-07-10T05:56:36.447Z,1007.63
2016-07-10T05:57:07.068Z,1007.64
2016-07-10T05:57:37.092Z,1007.64
2016-07-10T05:58:07.095Z,1007.64
2016-07-10T05:58:37.122Z,1007.63
2016-07-10T05:59:05.914Z,1007.65
2016-07-10T05:59:37.156Z,1007.63
2016-07-10T06:00:07.167Z,1007.66
2016-07-10T06:00:37.188Z,1007.65
2016-07-10T06:01:07.194Z,1007.63
2016-07-10T06:01:36.593Z,1007.65
2016-07-10T06:02:07.233Z,1007.66
2016-07-10T06:02:37.255Z,1007.67
2016-07-10T06:03:07.257Z,1007.63
2016-07-10T06:03:37.282Z,1007.61
2016-07-10T06:04:07.296Z,1007.62
2016-07-10T06:04:36.690Z,1007.58
2016-07-10T06:05:07.338Z,1007.59